sensor_id;sensor_type;location;lat;lon;timestamp;P1;durP1;ratioP1;P2;durP2;ratioP2
33162;SDS011;29282;45.656;11.302;2023-11-19T00:02:21;5.32;;;4.32;;
33162;SDS011;29282;45.656;11.302;2023-11-19T00:04:47;6.60;;;4.40;;
33162;SDS011;29282;45.656;11.302;2023-11-19T00:07:13;8.00;;;4.38;;
33162;SDS011;29282;45.656;11.302;2023-11-19T00:09:39;8.63;;;4.30;;
33162;SDS011;29282;45.656;11.302;2023-11-19T00:12:05;5.60;;;4.07;;
33162;SDS011;29282;45.656;11.302;2023-11-19T00:14:32;6.82;;;4.32;;
33162;SDS011;29282;45.656;11.302;2023-11-19T00:17:00;8.13;;;4.10;;
33162;SDS011;29282;45.656;11.302;2023-11-19T00:19:26;7.40;;;4.30;;
33162;SDS011;29282;45.656;11.302;2023-11-19T00:21:51;7.40;;;4.57;;
33162;SDS011;29282;45.656;11.302;2023-11-19T00:24:17;5.90;;;4.10;;
33162;SDS011;29282;45.656;11.302;2023-11-19T00:26:43;5.88;;;3.78;;
33162;SDS011;29282;45.656;11.302;2023-11-19T00:29:09;8.80;;;4.00;;
33162;SDS011;29282;45.656;11.302;2023-11-19T00:31:35;7.38;;;4.40;;
33162;SDS011;29282;45.656;11.302;2023-11-19T00:34:00;5.65;;;4.13;;
33162;SDS011;29282;45.656;11.302;2023-11-19T00:36:27;5.57;;;4.10;;
33162;SDS011;29282;45.656;11.302;2023-11-19T00:38:53;5.65;;;3.88;;
33162;SDS011;29282;45.656;11.302;2023-11-19T00:41:21;7.68;;;4.15;;
33162;SDS011;29282;45.656;11.302;2023-11-19T00:43:47;4.28;;;3.33;;
33162;SDS011;29282;45.656;11.302;2023-11-19T00:46:14;5.88;;;4.00;;
33162;SDS011;29282;45.656;11.302;2023-11-19T00:48:39;11.23;;;4.10;;
33162;SDS011;29282;45.656;11.302;2023-11-19T00:51:05;5.03;;;3.97;;
33162;SDS011;29282;45.656;11.302;2023-11-19T00:53:31;5.35;;;4.00;;
33162;SDS011;29282;45.656;11.302;2023-11-19T00:55:59;5.10;;;4.20;;
33162;SDS011;29282;45.656;11.302;2023-11-19T00:58:28;6.63;;;4.15;;
33162;SDS011;29282;45.656;11.302;2023-11-19T01:00:54;8.18;;;4.20;;
33162;SDS011;29282;45.656;11.302;2023-11-19T01:03:20;6.70;;;3.80;;
33162;SDS011;29282;45.656;11.302;2023-11-19T01:05:46;7.70;;;4.03;;
33162;SDS011;29282;45.656;11.302;2023-11-19T01:08:12;5.65;;;3.72;;
33162;SDS011;29282;45.656;11.302;2023-11-19T01:10:37;8.00;;;3.75;;
33162;SDS011;29282;45.656;11.302;2023-11-19T01:13:03;6.43;;;3.97;;
33162;SDS011;29282;45.656;11.302;2023-11-19T01:15:31;9.48;;;4.05;;
33162;SDS011;29282;45.656;11.302;2023-11-19T01:18:12;5.65;;;3.70;;
33162;SDS011;29282;45.656;11.302;2023-11-19T01:20:37;5.18;;;3.70;;
33162;SDS011;29282;45.656;11.302;2023-11-19T01:23:03;4.55;;;3.40;;
33162;SDS011;29282;45.656;11.302;2023-11-19T01:25:29;4.53;;;3.75;;
33162;SDS011;29282;45.656;11.302;2023-11-19T01:27:54;5.13;;;3.70;;
33162;SDS011;29282;45.656;11.302;2023-11-19T01:30:23;7.95;;;3.95;;
33162;SDS011;29282;45.656;11.302;2023-11-19T01:32:49;6.38;;;3.72;;
33162;SDS011;29282;45.656;11.302;2023-11-19T01:35:14;6.35;;;4.20;;
33162;SDS011;29282;45.656;11.302;2023-11-19T01:37:40;5.57;;;3.80;;
33162;SDS011;29282;45.656;11.302;2023-11-19T01:40:06;5.05;;;3.72;;
33162;SDS011;29282;45.656;11.302;2023-11-19T01:42:40;5.50;;;3.83;;
33162;SDS011;29282;45.656;11.302;2023-11-19T01:45:06;5.95;;;3.97;;
33162;SDS011;29282;45.656;11.302;2023-11-19T01:47:35;6.57;;;4.15;;
33162;SDS011;29282;45.656;11.302;2023-11-19T01:50:01;6.07;;;4.03;;
33162;SDS011;29282;45.656;11.302;2023-11-19T01:52:31;7.03;;;4.00;;
33162;SDS011;29282;45.656;11.302;2023-11-19T01:55:00;7.15;;;3.58;;
33162;SDS011;29282;45.656;11.302;2023-11-19T01:57:26;5.38;;;3.70;;
33162;SDS011;29282;45.656;11.302;2023-11-19T01:59:52;5.05;;;3.47;;
33162;SDS011;29282;45.656;11.302;2023-11-19T02:02:19;5.35;;;3.80;;
33162;SDS011;29282;45.656;11.302;2023-11-19T02:04:49;5.22;;;3.42;;
33162;SDS011;29282;45.656;11.302;2023-11-19T02:07:16;5.53;;;3.95;;
33162;SDS011;29282;45.656;11.302;2023-11-19T02:09:42;4.55;;;3.70;;
33162;SDS011;29282;45.656;11.302;2023-11-19T02:12:09;4.68;;;3.72;;
33162;SDS011;29282;45.656;11.302;2023-11-19T02:14:37;5.50;;;3.55;;
33162;SDS011;29282;45.656;11.302;2023-11-19T02:17:05;4.72;;;3.65;;
33162;SDS011;29282;45.656;11.302;2023-11-19T02:19:31;4.72;;;3.60;;
33162;SDS011;29282;45.656;11.302;2023-11-19T02:21:57;5.97;;;3.47;;
33162;SDS011;29282;45.656;11.302;2023-11-19T02:24:25;6.43;;;3.85;;
33162;SDS011;29282;45.656;11.302;2023-11-19T02:27:02;4.07;;;3.53;;
33162;SDS011;29282;45.656;11.302;2023-11-19T02:29:32;5.32;;;3.70;;
33162;SDS011;29282;45.656;11.302;2023-11-19T02:31:57;4.25;;;3.38;;
33162;SDS011;29282;45.656;11.302;2023-11-19T02:34:23;4.93;;;3.70;;
33162;SDS011;29282;45.656;11.302;2023-11-19T02:36:48;5.38;;;3.60;;
33162;SDS011;29282;45.656;11.302;2023-11-19T02:39:15;4.63;;;3.58;;
33162;SDS011;29282;45.656;11.302;2023-11-19T02:41:46;5.93;;;3.60;;
33162;SDS011;29282;45.656;11.302;2023-11-19T02:44:12;5.78;;;3.40;;
33162;SDS011;29282;45.656;11.302;2023-11-19T02:46:38;7.15;;;3.55;;
33162;SDS011;29282;45.656;11.302;2023-11-19T02:49:07;6.85;;;3.45;;
33162;SDS011;29282;45.656;11.302;2023-11-19T02:51:32;4.07;;;3.30;;
33162;SDS011;29282;45.656;11.302;2023-11-19T02:53:59;5.15;;;3.10;;
33162;SDS011;29282;45.656;11.302;2023-11-19T02:56:25;6.55;;;3.70;;
33162;SDS011;29282;45.656;11.302;2023-11-19T02:58:51;8.50;;;3.67;;
33162;SDS011;29282;45.656;11.302;2023-11-19T03:01:26;6.38;;;3.60;;
33162;SDS011;29282;45.656;11.302;2023-11-19T03:03:55;4.68;;;3.55;;
33162;SDS011;29282;45.656;11.302;2023-11-19T03:06:22;7.50;;;3.38;;
33162;SDS011;29282;45.656;11.302;2023-11-19T03:08:48;5.65;;;3.15;;
33162;SDS011;29282;45.656;11.302;2023-11-19T03:11:13;4.95;;;3.65;;
33162;SDS011;29282;45.656;11.302;2023-11-19T03:13:39;7.22;;;3.70;;
33162;SDS011;29282;45.656;11.302;2023-11-19T03:16:05;6.65;;;3.40;;
33162;SDS011;29282;45.656;11.302;2023-11-19T03:18:35;5.45;;;3.40;;
33162;SDS011;29282;45.656;11.302;2023-11-19T03:21:00;5.05;;;3.72;;
33162;SDS011;29282;45.656;11.302;2023-11-19T03:23:25;4.93;;;3.55;;
33162;SDS011;29282;45.656;11.302;2023-11-19T03:25:54;5.38;;;3.50;;
33162;SDS011;29282;45.656;11.302;2023-11-19T03:28:20;7.13;;;3.45;;
33162;SDS011;29282;45.656;11.302;2023-11-19T03:30:45;5.20;;;3.40;;
33162;SDS011;29282;45.656;11.302;2023-11-19T03:33:11;9.52;;;3.55;;
33162;SDS011;29282;45.656;11.302;2023-11-19T03:35:36;6.82;;;3.30;;
33162;SDS011;29282;45.656;11.302;2023-11-19T03:38:02;5.93;;;3.53;;
33162;SDS011;29282;45.656;11.302;2023-11-19T03:40:30;4.82;;;2.90;;
33162;SDS011;29282;45.656;11.302;2023-11-19T03:42:56;5.10;;;3.47;;
33162;SDS011;29282;45.656;11.302;2023-11-19T03:45:23;6.13;;;3.60;;
33162;SDS011;29282;45.656;11.302;2023-11-19T03:47:48;6.43;;;3.08;;
33162;SDS011;29282;45.656;11.302;2023-11-19T03:50:15;5.93;;;3.33;;
33162;SDS011;29282;45.656;11.302;2023-11-19T03:52:41;7.53;;;3.58;;
33162;SDS011;29282;45.656;11.302;2023-11-19T03:55:06;5.25;;;3.17;;
33162;SDS011;29282;45.656;11.302;2023-11-19T03:57:33;6.90;;;3.40;;
33162;SDS011;29282;45.656;11.302;2023-11-19T03:59:59;4.63;;;2.70;;
33162;SDS011;29282;45.656;11.302;2023-11-19T04:02:25;7.60;;;3.70;;
33162;SDS011;29282;45.656;11.302;2023-11-19T04:04:53;4.20;;;3.33;;
33162;SDS011;29282;45.656;11.302;2023-11-19T04:07:19;6.30;;;3.10;;
33162;SDS011;29282;45.656;11.302;2023-11-19T04:09:45;5.18;;;3.30;;
33162;SDS011;29282;45.656;11.302;2023-11-19T04:12:11;6.07;;;3.60;;
33162;SDS011;29282;45.656;11.302;2023-11-19T04:14:37;6.10;;;3.25;;
33162;SDS011;29282;45.656;11.302;2023-11-19T04:17:02;5.28;;;3.28;;
33162;SDS011;29282;45.656;11.302;2023-11-19T04:19:28;4.90;;;3.13;;
33162;SDS011;29282;45.656;11.302;2023-11-19T04:21:53;5.47;;;2.90;;
33162;SDS011;29282;45.656;11.302;2023-11-19T04:24:19;7.35;;;2.95;;
33162;SDS011;29282;45.656;11.302;2023-11-19T04:26:45;4.20;;;3.05;;
33162;SDS011;29282;45.656;11.302;2023-11-19T04:29:14;5.93;;;3.17;;
33162;SDS011;29282;45.656;11.302;2023-11-19T04:31:44;5.30;;;3.00;;
33162;SDS011;29282;45.656;11.302;2023-11-19T04:34:11;4.53;;;3.03;;
33162;SDS011;29282;45.656;11.302;2023-11-19T04:36:37;3.33;;;2.90;;
33162;SDS011;29282;45.656;11.302;2023-11-19T04:39:03;4.40;;;3.15;;
33162;SDS011;29282;45.656;11.302;2023-11-19T04:41:47;3.55;;;2.53;;
33162;SDS011;29282;45.656;11.302;2023-11-19T04:44:16;5.70;;;3.58;;
33162;SDS011;29282;45.656;11.302;2023-11-19T04:46:42;4.18;;;3.15;;
33162;SDS011;29282;45.656;11.302;2023-11-19T04:49:11;3.42;;;2.85;;
33162;SDS011;29282;45.656;11.302;2023-11-19T04:51:38;4.38;;;3.00;;
33162;SDS011;29282;45.656;11.302;2023-11-19T04:54:07;3.50;;;2.88;;
33162;SDS011;29282;45.656;11.302;2023-11-19T04:56:33;5.30;;;2.70;;
33162;SDS011;29282;45.656;11.302;2023-11-19T04:59:01;4.65;;;2.85;;
33162;SDS011;29282;45.656;11.302;2023-11-19T05:01:26;3.40;;;2.53;;
33162;SDS011;29282;45.656;11.302;2023-11-19T05:03:52;3.83;;;2.97;;
33162;SDS011;29282;45.656;11.302;2023-11-19T05:06:18;3.50;;;2.85;;
33162;SDS011;29282;45.656;11.302;2023-11-19T05:08:44;3.00;;;2.70;;
33162;SDS011;29282;45.656;11.302;2023-11-19T05:11:09;4.43;;;2.97;;
33162;SDS011;29282;45.656;11.302;2023-11-19T05:13:37;3.50;;;3.10;;
33162;SDS011;29282;45.656;11.302;2023-11-19T05:16:03;3.85;;;2.72;;
33162;SDS011;29282;45.656;11.302;2023-11-19T05:18:29;3.92;;;2.90;;
33162;SDS011;29282;45.656;11.302;2023-11-19T05:20:54;3.25;;;2.63;;
33162;SDS011;29282;45.656;11.302;2023-11-19T05:23:20;4.82;;;2.60;;
33162;SDS011;29282;45.656;11.302;2023-11-19T05:25:45;4.20;;;3.05;;
33162;SDS011;29282;45.656;11.302;2023-11-19T05:28:11;4.55;;;2.90;;
33162;SDS011;29282;45.656;11.302;2023-11-19T05:30:36;6.13;;;3.03;;
33162;SDS011;29282;45.656;11.302;2023-11-19T05:33:02;3.95;;;2.85;;
33162;SDS011;29282;45.656;11.302;2023-11-19T05:35:27;5.82;;;3.05;;
33162;SDS011;29282;45.656;11.302;2023-11-19T05:37:53;3.88;;;2.88;;
33162;SDS011;29282;45.656;11.302;2023-11-19T05:40:18;4.85;;;2.65;;
33162;SDS011;29282;45.656;11.302;2023-11-19T05:42:45;5.10;;;3.22;;
33162;SDS011;29282;45.656;11.302;2023-11-19T05:45:11;3.00;;;2.53;;
33162;SDS011;29282;45.656;11.302;2023-11-19T05:47:37;6.85;;;3.08;;
33162;SDS011;29282;45.656;11.302;2023-11-19T05:50:02;6.85;;;3.30;;
33162;SDS011;29282;45.656;11.302;2023-11-19T05:52:31;3.03;;;2.58;;
33162;SDS011;29282;45.656;11.302;2023-11-19T05:54:59;3.50;;;2.70;;
33162;SDS011;29282;45.656;11.302;2023-11-19T05:57:29;4.07;;;2.60;;
33162;SDS011;29282;45.656;11.302;2023-11-19T05:59:54;3.70;;;2.80;;
33162;SDS011;29282;45.656;11.302;2023-11-19T06:02:20;4.07;;;3.00;;
33162;SDS011;29282;45.656;11.302;2023-11-19T06:04:45;4.15;;;2.60;;
33162;SDS011;29282;45.656;11.302;2023-11-19T06:07:13;3.20;;;2.78;;
33162;SDS011;29282;45.656;11.302;2023-11-19T06:09:40;3.63;;;2.85;;
33162;SDS011;29282;45.656;11.302;2023-11-19T06:12:06;4.43;;;2.70;;
33162;SDS011;29282;45.656;11.302;2023-11-19T06:14:32;6.35;;;3.00;;
33162;SDS011;29282;45.656;11.302;2023-11-19T06:16:58;3.97;;;2.63;;
33162;SDS011;29282;45.656;11.302;2023-11-19T06:19:23;2.97;;;2.47;;
33162;SDS011;29282;45.656;11.302;2023-11-19T06:21:50;4.57;;;3.15;;
33162;SDS011;29282;45.656;11.302;2023-11-19T06:24:15;3.00;;;2.50;;
33162;SDS011;29282;45.656;11.302;2023-11-19T06:26:41;4.57;;;2.50;;
33162;SDS011;29282;45.656;11.302;2023-11-19T06:29:06;5.15;;;2.70;;
33162;SDS011;29282;45.656;11.302;2023-11-19T06:31:32;3.70;;;2.75;;
33162;SDS011;29282;45.656;11.302;2023-11-19T06:33:57;4.60;;;3.00;;
33162;SDS011;29282;45.656;11.302;2023-11-19T06:36:23;6.65;;;3.33;;
33162;SDS011;29282;45.656;11.302;2023-11-19T06:38:48;3.83;;;2.70;;
33162;SDS011;29282;45.656;11.302;2023-11-19T06:41:14;5.35;;;2.85;;
33162;SDS011;29282;45.656;11.302;2023-11-19T06:43:39;4.13;;;3.00;;
33162;SDS011;29282;45.656;11.302;2023-11-19T06:46:05;3.13;;;2.42;;
33162;SDS011;29282;45.656;11.302;2023-11-19T06:48:31;8.40;;;2.90;;
33162;SDS011;29282;45.656;11.302;2023-11-19T06:50:58;5.30;;;2.90;;
33162;SDS011;29282;45.656;11.302;2023-11-19T06:53:24;8.95;;;2.80;;
33162;SDS011;29282;45.656;11.302;2023-11-19T06:55:50;3.90;;;2.72;;
33162;SDS011;29282;45.656;11.302;2023-11-19T06:58:15;5.22;;;2.78;;
33162;SDS011;29282;45.656;11.302;2023-11-19T07:00:43;3.30;;;2.58;;
33162;SDS011;29282;45.656;11.302;2023-11-19T07:03:08;7.40;;;2.85;;
33162;SDS011;29282;45.656;11.302;2023-11-19T07:05:35;5.88;;;2.90;;
33162;SDS011;29282;45.656;11.302;2023-11-19T07:08:03;5.03;;;2.47;;
33162;SDS011;29282;45.656;11.302;2023-11-19T07:10:29;7.72;;;2.85;;
33162;SDS011;29282;45.656;11.302;2023-11-19T07:12:55;7.75;;;3.05;;
33162;SDS011;29282;45.656;11.302;2023-11-19T07:15:21;6.75;;;3.13;;
33162;SDS011;29282;45.656;11.302;2023-11-19T07:17:46;3.45;;;2.55;;
33162;SDS011;29282;45.656;11.302;2023-11-19T07:20:13;4.15;;;2.88;;
33162;SDS011;29282;45.656;11.302;2023-11-19T07:22:41;10.20;;;3.20;;
33162;SDS011;29282;45.656;11.302;2023-11-19T07:25:12;6.43;;;3.00;;
33162;SDS011;29282;45.656;11.302;2023-11-19T07:27:38;5.75;;;2.95;;
33162;SDS011;29282;45.656;11.302;2023-11-19T07:30:05;4.32;;;2.63;;
33162;SDS011;29282;45.656;11.302;2023-11-19T07:32:32;5.80;;;3.30;;
33162;SDS011;29282;45.656;11.302;2023-11-19T07:34:58;8.15;;;3.40;;
33162;SDS011;29282;45.656;11.302;2023-11-19T07:37:23;8.48;;;2.95;;
33162;SDS011;29282;45.656;11.302;2023-11-19T07:39:49;11.27;;;3.55;;
33162;SDS011;29282;45.656;11.302;2023-11-19T07:42:14;5.85;;;2.72;;
33162;SDS011;29282;45.656;11.302;2023-11-19T07:44:40;4.72;;;2.88;;
33162;SDS011;29282;45.656;11.302;2023-11-19T07:47:06;4.28;;;2.90;;
33162;SDS011;29282;45.656;11.302;2023-11-19T07:49:32;12.27;;;4.45;;
33162;SDS011;29282;45.656;11.302;2023-11-19T07:51:58;11.40;;;4.90;;
33162;SDS011;29282;45.656;11.302;2023-11-19T07:54:24;13.23;;;4.72;;
33162;SDS011;29282;45.656;11.302;2023-11-19T07:56:49;12.93;;;4.65;;
33162;SDS011;29282;45.656;11.302;2023-11-19T07:59:15;15.55;;;4.45;;
33162;SDS011;29282;45.656;11.302;2023-11-19T08:01:41;12.90;;;4.25;;
33162;SDS011;29282;45.656;11.302;2023-11-19T08:04:06;12.48;;;3.85;;
33162;SDS011;29282;45.656;11.302;2023-11-19T08:06:32;16.60;;;4.45;;
33162;SDS011;29282;45.656;11.302;2023-11-19T08:08:57;8.25;;;3.97;;
33162;SDS011;29282;45.656;11.302;2023-11-19T08:11:23;15.00;;;4.68;;
33162;SDS011;29282;45.656;11.302;2023-11-19T08:13:49;22.05;;;6.97;;
33162;SDS011;29282;45.656;11.302;2023-11-19T08:16:15;12.43;;;4.93;;
33162;SDS011;29282;45.656;11.302;2023-11-19T08:18:41;11.75;;;5.07;;
33162;SDS011;29282;45.656;11.302;2023-11-19T08:21:10;11.18;;;4.93;;
33162;SDS011;29282;45.656;11.302;2023-11-19T08:23:36;14.73;;;4.70;;
33162;SDS011;29282;45.656;11.302;2023-11-19T08:26:03;13.93;;;4.78;;
33162;SDS011;29282;45.656;11.302;2023-11-19T08:28:29;14.13;;;4.57;;
33162;SDS011;29282;45.656;11.302;2023-11-19T08:30:56;17.35;;;5.22;;
33162;SDS011;29282;45.656;11.302;2023-11-19T08:33:22;12.05;;;4.78;;
33162;SDS011;29282;45.656;11.302;2023-11-19T08:35:47;12.35;;;4.88;;
33162;SDS011;29282;45.656;11.302;2023-11-19T08:38:16;12.57;;;5.20;;
33162;SDS011;29282;45.656;11.302;2023-11-19T08:40:41;11.18;;;4.90;;
33162;SDS011;29282;45.656;11.302;2023-11-19T08:43:07;15.40;;;4.75;;
33162;SDS011;29282;45.656;11.302;2023-11-19T08:45:32;11.18;;;4.53;;
33162;SDS011;29282;45.656;11.302;2023-11-19T08:48:01;12.10;;;4.13;;
33162;SDS011;29282;45.656;11.302;2023-11-19T08:50:26;14.57;;;5.22;;
33162;SDS011;29282;45.656;11.302;2023-11-19T08:52:52;9.05;;;4.75;;
33162;SDS011;29282;45.656;11.302;2023-11-19T08:55:17;11.32;;;4.68;;
33162;SDS011;29282;45.656;11.302;2023-11-19T08:57:43;17.05;;;4.85;;
33162;SDS011;29282;45.656;11.302;2023-11-19T09:00:09;11.10;;;4.47;;
33162;SDS011;29282;45.656;11.302;2023-11-19T09:02:35;10.65;;;4.78;;
33162;SDS011;29282;45.656;11.302;2023-11-19T09:05:02;12.82;;;4.60;;
33162;SDS011;29282;45.656;11.302;2023-11-19T09:07:28;15.73;;;4.90;;
33162;SDS011;29282;45.656;11.302;2023-11-19T09:09:53;14.13;;;4.55;;
33162;SDS011;29282;45.656;11.302;2023-11-19T09:12:19;13.15;;;4.75;;
33162;SDS011;29282;45.656;11.302;2023-11-19T09:14:44;12.10;;;4.97;;
33162;SDS011;29282;45.656;11.302;2023-11-19T09:17:10;13.30;;;4.85;;
33162;SDS011;29282;45.656;11.302;2023-11-19T09:19:36;8.52;;;4.95;;
33162;SDS011;29282;45.656;11.302;2023-11-19T09:22:02;12.02;;;4.43;;
33162;SDS011;29282;45.656;11.302;2023-11-19T09:24:27;11.38;;;4.53;;
33162;SDS011;29282;45.656;11.302;2023-11-19T09:26:53;12.05;;;3.92;;
33162;SDS011;29282;45.656;11.302;2023-11-19T09:29:19;14.80;;;4.15;;
33162;SDS011;29282;45.656;11.302;2023-11-19T09:31:46;10.60;;;4.53;;
33162;SDS011;29282;45.656;11.302;2023-11-19T09:34:12;10.07;;;4.50;;
33162;SDS011;29282;45.656;11.302;2023-11-19T09:36:37;9.75;;;3.92;;
33162;SDS011;29282;45.656;11.302;2023-11-19T09:39:02;8.60;;;4.63;;
33162;SDS011;29282;45.656;11.302;2023-11-19T09:41:29;6.75;;;4.07;;
33162;SDS011;29282;45.656;11.302;2023-11-19T09:43:56;11.40;;;4.20;;
33162;SDS011;29282;45.656;11.302;2023-11-19T09:46:21;8.48;;;4.28;;
33162;SDS011;29282;45.656;11.302;2023-11-19T09:48:49;11.55;;;4.15;;
33162;SDS011;29282;45.656;11.302;2023-11-19T09:51:22;9.73;;;4.35;;
33162;SDS011;29282;45.656;11.302;2023-11-19T09:53:48;10.48;;;4.30;;
33162;SDS011;29282;45.656;11.302;2023-11-19T09:56:14;12.27;;;4.20;;
33162;SDS011;29282;45.656;11.302;2023-11-19T09:58:42;11.75;;;4.30;;
33162;SDS011;29282;45.656;11.302;2023-11-19T10:01:07;10.52;;;4.63;;
33162;SDS011;29282;45.656;11.302;2023-11-19T10:03:35;7.20;;;3.78;;
33162;SDS011;29282;45.656;11.302;2023-11-19T10:06:08;10.48;;;4.18;;
33162;SDS011;29282;45.656;11.302;2023-11-19T10:08:37;11.18;;;4.15;;
33162;SDS011;29282;45.656;11.302;2023-11-19T10:11:06;16.17;;;3.92;;
33162;SDS011;29282;45.656;11.302;2023-11-19T10:13:34;10.43;;;4.22;;
33162;SDS011;29282;45.656;11.302;2023-11-19T10:16:12;9.48;;;4.22;;
33162;SDS011;29282;45.656;11.302;2023-11-19T10:18:47;7.30;;;3.72;;
33162;SDS011;29282;45.656;11.302;2023-11-19T10:21:18;8.73;;;4.47;;
33162;SDS011;29282;45.656;11.302;2023-11-19T10:26:17;10.05;;;4.50;;
33162;SDS011;29282;45.656;11.302;2023-11-19T10:28:45;8.70;;;4.22;;
33162;SDS011;29282;45.656;11.302;2023-11-19T10:31:12;11.50;;;3.92;;
33162;SDS011;29282;45.656;11.302;2023-11-19T10:33:39;10.63;;;4.20;;
33162;SDS011;29282;45.656;11.302;2023-11-19T10:36:07;8.38;;;4.03;;
33162;SDS011;29282;45.656;11.302;2023-11-19T10:38:33;8.20;;;4.05;;
33162;SDS011;29282;45.656;11.302;2023-11-19T10:40:58;9.70;;;4.10;;
33162;SDS011;29282;45.656;11.302;2023-11-19T10:43:24;10.45;;;4.10;;
33162;SDS011;29282;45.656;11.302;2023-11-19T10:45:51;13.27;;;4.28;;
33162;SDS011;29282;45.656;11.302;2023-11-19T10:48:17;24.13;;;5.03;;
33162;SDS011;29282;45.656;11.302;2023-11-19T10:50:43;13.75;;;4.30;;
33162;SDS011;29282;45.656;11.302;2023-11-19T10:53:10;8.82;;;3.72;;
33162;SDS011;29282;45.656;11.302;2023-11-19T10:55:43;16.08;;;3.88;;
33162;SDS011;29282;45.656;11.302;2023-11-19T10:58:12;8.98;;;3.85;;
33162;SDS011;29282;45.656;11.302;2023-11-19T11:03:21;22.45;;;7.32;;
33162;SDS011;29282;45.656;11.302;2023-11-19T11:05:49;26.38;;;8.90;;
33162;SDS011;29282;45.656;11.302;2023-11-19T11:08:16;22.00;;;8.65;;
33162;SDS011;29282;45.656;11.302;2023-11-19T11:10:43;34.38;;;7.70;;
33162;SDS011;29282;45.656;11.302;2023-11-19T11:13:10;19.02;;;7.40;;
33162;SDS011;29282;45.656;11.302;2023-11-19T11:15:38;19.50;;;7.65;;
33162;SDS011;29282;45.656;11.302;2023-11-19T11:18:04;20.77;;;8.52;;
33162;SDS011;29282;45.656;11.302;2023-11-19T11:20:33;20.67;;;8.32;;
33162;SDS011;29282;45.656;11.302;2023-11-19T11:37:44;17.83;;;7.55;;
33162;SDS011;29282;45.656;11.302;2023-11-19T11:40:16;20.27;;;7.93;;
33162;SDS011;29282;45.656;11.302;2023-11-19T11:42:46;17.85;;;6.82;;
33162;SDS011;29282;45.656;11.302;2023-11-19T11:45:12;13.85;;;7.05;;
33162;SDS011;29282;45.656;11.302;2023-11-19T11:50:07;14.98;;;7.10;;
33162;SDS011;29282;45.656;11.302;2023-11-19T11:53:06;15.15;;;6.65;;
33162;SDS011;29282;45.656;11.302;2023-11-19T11:55:26;12.35;;;6.15;;
33162;SDS011;29282;45.656;11.302;2023-11-19T11:58:12;19.38;;;7.18;;
33162;SDS011;29282;45.656;11.302;2023-11-19T12:00:39;20.90;;;7.75;;
33162;SDS011;29282;45.656;11.302;2023-11-19T12:03:05;15.43;;;6.88;;
33162;SDS011;29282;45.656;11.302;2023-11-19T12:05:32;14.07;;;6.72;;
33162;SDS011;29282;45.656;11.302;2023-11-19T12:08:04;15.05;;;7.10;;
33162;SDS011;29282;45.656;11.302;2023-11-19T12:10:32;14.30;;;6.95;;
33162;SDS011;29282;45.656;11.302;2023-11-19T12:13:08;14.23;;;6.35;;
33162;SDS011;29282;45.656;11.302;2023-11-19T12:15:54;14.48;;;7.00;;
33162;SDS011;29282;45.656;11.302;2023-11-19T12:18:28;15.43;;;6.70;;
33162;SDS011;29282;45.656;11.302;2023-11-19T12:20:55;11.90;;;5.63;;
33162;SDS011;29282;45.656;11.302;2023-11-19T12:23:22;13.60;;;6.45;;
33162;SDS011;29282;45.656;11.302;2023-11-19T12:25:51;14.15;;;5.97;;
33162;SDS011;29282;45.656;11.302;2023-11-19T12:28:17;13.85;;;6.15;;
33162;SDS011;29282;45.656;11.302;2023-11-19T12:30:44;12.57;;;5.72;;
33162;SDS011;29282;45.656;11.302;2023-11-19T12:33:11;12.05;;;5.93;;
33162;SDS011;29282;45.656;11.302;2023-11-19T12:35:44;9.15;;;5.22;;
33162;SDS011;29282;45.656;11.302;2023-11-19T12:38:22;13.23;;;6.63;;
33162;SDS011;29282;45.656;11.302;2023-11-19T12:41:04;11.65;;;5.85;;
33162;SDS011;29282;45.656;11.302;2023-11-19T12:43:31;12.23;;;5.70;;
33162;SDS011;29282;45.656;11.302;2023-11-19T12:45:59;11.95;;;6.10;;
33162;SDS011;29282;45.656;11.302;2023-11-19T12:48:24;11.65;;;5.55;;
33162;SDS011;29282;45.656;11.302;2023-11-19T12:50:51;10.90;;;5.57;;
33162;SDS011;29282;45.656;11.302;2023-11-19T12:53:21;10.25;;;5.90;;
33162;SDS011;29282;45.656;11.302;2023-11-19T12:55:48;10.50;;;6.07;;
33162;SDS011;29282;45.656;11.302;2023-11-19T12:58:32;16.65;;;5.72;;
33162;SDS011;29282;45.656;11.302;2023-11-19T13:01:00;13.02;;;6.00;;
33162;SDS011;29282;45.656;11.302;2023-11-19T13:03:32;10.65;;;5.75;;
33162;SDS011;29282;45.656;11.302;2023-11-19T13:06:03;10.27;;;5.70;;
33162;SDS011;29282;45.656;11.302;2023-11-19T13:08:43;10.93;;;5.80;;
33162;SDS011;29282;45.656;11.302;2023-11-19T13:11:10;11.55;;;5.47;;
33162;SDS011;29282;45.656;11.302;2023-11-19T13:13:55;10.50;;;5.20;;
33162;SDS011;29282;45.656;11.302;2023-11-19T13:18:50;11.80;;;5.93;;
33162;SDS011;29282;45.656;11.302;2023-11-19T13:21:16;11.32;;;5.90;;
33162;SDS011;29282;45.656;11.302;2023-11-19T13:23:43;8.95;;;5.13;;
33162;SDS011;29282;45.656;11.302;2023-11-19T13:26:08;11.82;;;5.93;;
33162;SDS011;29282;45.656;11.302;2023-11-19T13:28:34;9.98;;;5.55;;
33162;SDS011;29282;45.656;11.302;2023-11-19T13:31:00;9.23;;;5.35;;
33162;SDS011;29282;45.656;11.302;2023-11-19T13:33:25;12.18;;;5.88;;
33162;SDS011;29282;45.656;11.302;2023-11-19T13:35:51;10.25;;;5.35;;
33162;SDS011;29282;45.656;11.302;2023-11-19T13:38:18;9.40;;;5.13;;
33162;SDS011;29282;45.656;11.302;2023-11-19T13:40:43;9.35;;;5.50;;
33162;SDS011;29282;45.656;11.302;2023-11-19T13:43:09;11.05;;;5.38;;
33162;SDS011;29282;45.656;11.302;2023-11-19T13:45:34;13.48;;;5.60;;
33162;SDS011;29282;45.656;11.302;2023-11-19T13:48:00;12.65;;;5.78;;
33162;SDS011;29282;45.656;11.302;2023-11-19T13:50:25;9.50;;;5.40;;
33162;SDS011;29282;45.656;11.302;2023-11-19T13:52:51;11.35;;;5.40;;
33162;SDS011;29282;45.656;11.302;2023-11-19T13:55:16;10.63;;;4.78;;
33162;SDS011;29282;45.656;11.302;2023-11-19T13:57:43;9.10;;;5.10;;
33162;SDS011;29282;45.656;11.302;2023-11-19T14:00:09;10.18;;;5.25;;
33162;SDS011;29282;45.656;11.302;2023-11-19T14:02:41;9.50;;;5.20;;
33162;SDS011;29282;45.656;11.302;2023-11-19T14:05:07;14.90;;;5.30;;
33162;SDS011;29282;45.656;11.302;2023-11-19T14:07:34;12.15;;;5.28;;
33162;SDS011;29282;45.656;11.302;2023-11-19T14:10:00;11.75;;;5.25;;
33162;SDS011;29282;45.656;11.302;2023-11-19T14:12:26;12.18;;;5.10;;
33162;SDS011;29282;45.656;11.302;2023-11-19T14:14:54;8.70;;;4.82;;
33162;SDS011;29282;45.656;11.302;2023-11-19T14:17:20;20.48;;;5.68;;
33162;SDS011;29282;45.656;11.302;2023-11-19T14:19:45;9.93;;;4.93;;
33162;SDS011;29282;45.656;11.302;2023-11-19T14:22:11;13.98;;;5.70;;
33162;SDS011;29282;45.656;11.302;2023-11-19T14:24:36;12.77;;;5.47;;
33162;SDS011;29282;45.656;11.302;2023-11-19T14:27:02;11.75;;;5.10;;
33162;SDS011;29282;45.656;11.302;2023-11-19T14:29:28;9.85;;;4.70;;
33162;SDS011;29282;45.656;11.302;2023-11-19T14:31:55;8.57;;;4.60;;
33162;SDS011;29282;45.656;11.302;2023-11-19T14:34:21;9.05;;;4.57;;
33162;SDS011;29282;45.656;11.302;2023-11-19T14:36:47;12.30;;;5.07;;
33162;SDS011;29282;45.656;11.302;2023-11-19T14:39:12;9.25;;;4.90;;
33162;SDS011;29282;45.656;11.302;2023-11-19T14:41:42;11.18;;;5.00;;
33162;SDS011;29282;45.656;11.302;2023-11-19T14:44:09;13.20;;;5.13;;
33162;SDS011;29282;45.656;11.302;2023-11-19T14:46:35;9.63;;;5.00;;
33162;SDS011;29282;45.656;11.302;2023-11-19T14:49:00;9.07;;;4.80;;
33162;SDS011;29282;45.656;11.302;2023-11-19T14:51:26;8.25;;;4.95;;
33162;SDS011;29282;45.656;11.302;2023-11-19T14:53:52;13.32;;;5.53;;
33162;SDS011;29282;45.656;11.302;2023-11-19T14:56:17;25.77;;;5.10;;